createdAt,value
2022-10-19T00:00:00.967Z,71.60
2022-10-19T00:02:27.820Z,68.95
2022-10-19T00:04:54.546Z,68.51
2022-10-19T00:07:22.266Z,67.72
2022-10-19T00:09:48.980Z,67.70
2022-10-19T00:12:15.624Z,66.43
2022-10-19T00:14:42.276Z,66.04
2022-10-19T00:17:08.891Z,68.94
2022-10-19T00:19:35.536Z,68.37
2022-10-19T00:22:02.174Z,69.85
2022-10-19T00:24:29.056Z,70.08
2022-10-19T00:26:55.839Z,69.53
2022-10-19T00:29:22.483Z,69.99
2022-10-19T00:31:52.263Z,65.49
2022-10-19T00:34:19.187Z,65.83
2022-10-19T00:36:48.492Z,65.83
2022-10-19T00:39:17.296Z,65.83
2022-10-19T00:41:46.605Z,65.43
2022-10-19T00:44:13.181Z,66.15
2022-10-19T00:46:44.267Z,67.27
2022-10-19T00:49:17.863Z,68.40
2022-10-19T00:51:50.035Z,65.64
2022-10-19T00:54:18.956Z,67.10
2022-10-19T00:56:49.886Z,68.95
2022-10-19T00:59:23.159Z,69.37
2022-10-19T01:01:50.336Z,66.87
2022-10-19T01:04:19.597Z,66.44
2022-10-19T01:06:46.654Z,66.82
2022-10-19T01:09:13.965Z,66.40
2022-10-19T01:11:50.780Z,65.77
2022-10-19T01:14:35.045Z,65.95
2022-10-19T01:17:23.333Z,66.24
2022-10-19T01:20:27.355Z,65.41
2022-10-19T01:23:05.520Z,65.31
2022-10-19T01:25:47.595Z,65.00
2022-10-19T01:28:25.974Z,64.98
2022-10-19T01:31:04.544Z,67.48
2022-10-19T01:33:47.281Z,66.61
2022-10-19T01:36:37.024Z,68.45
2022-10-19T01:39:18.822Z,68.64
2022-10-19T01:42:10.698Z,70.46
2022-10-19T01:45:00.628Z,70.22
2022-10-19T01:47:50.932Z,68.41
2022-10-19T01:50:26.783Z,67.77
2022-10-19T01:52:56.513Z,69.08
2022-10-19T01:55:27.192Z,69.90
2022-10-19T01:58:01.725Z,71.26
2022-10-19T02:00:31.199Z,69.05
2022-10-19T02:03:00.516Z,68.61
2022-10-19T02:05:32.893Z,67.09
2022-10-19T02:08:06.375Z,67.28
2022-10-19T02:10:38.222Z,69.04
2022-10-19T02:13:07.921Z,69.29
2022-10-19T02:15:41.182Z,69.14
2022-10-19T02:18:12.648Z,68.85
2022-10-19T02:20:39.332Z,72.74
2022-10-19T02:23:07.582Z,72.30
2022-10-19T02:25:34.850Z,69.06
2022-10-19T02:28:04.802Z,67.10
2022-10-19T02:30:31.871Z,66.06
2022-10-19T02:32:58.704Z,66.59
2022-10-19T02:35:26.837Z,65.68
2022-10-19T02:37:54.446Z,66.87
2022-10-19T02:40:21.991Z,68.53
2022-10-19T02:43:00.366Z,68.39
2022-10-19T02:45:37.413Z,66.51
2022-10-19T02:48:18.661Z,65.93
2022-10-19T02:50:46.403Z,68.91
2022-10-19T02:53:13.380Z,69.96
2022-10-19T02:58:12.517Z,72.50
2022-10-19T03:00:39.170Z,70.03
2022-10-19T03:03:06.252Z,69.43
2022-10-19T03:05:32.841Z,70.92
2022-10-19T03:08:01.046Z,71.53
2022-10-19T03:10:27.641Z,72.30
2022-10-19T03:12:54.228Z,70.14
2022-10-19T03:15:20.799Z,67.42
2022-10-19T03:17:47.372Z,66.69
2022-10-19T03:20:13.960Z,66.42
2022-10-19T03:22:41.785Z,67.77
2022-10-19T03:25:08.803Z,67.87
2022-10-19T03:27:35.769Z,66.19
2022-10-19T03:30:02.654Z,66.42
2022-10-19T03:32:29.228Z,69.03
2022-10-19T03:34:55.824Z,67.59
2022-10-19T03:37:22.436Z,66.42
2022-10-19T03:39:49.025Z,66.29
2022-10-19T03:42:15.638Z,63.98
2022-10-19T03:44:42.253Z,62.74
2022-10-19T03:47:08.826Z,62.42
2022-10-19T03:49:38.042Z,62.92
2022-10-19T03:52:06.885Z,62.01
2022-10-19T03:54:33.475Z,64.52
2022-10-19T03:57:00.063Z,65.42
2022-10-19T03:59:26.992Z,64.54
2022-10-19T04:01:53.573Z,65.08
2022-10-19T04:04:20.502Z,68.32
2022-10-19T04:06:49.445Z,67.94
2022-10-19T04:09:19.214Z,68.21
2022-10-19T04:11:46.101Z,65.74
2022-10-19T04:14:39.186Z,65.41
2022-10-19T04:17:12.334Z,64.03
2022-10-19T04:19:38.907Z,64.16
2022-10-19T04:22:05.520Z,65.20
2022-10-19T04:24:32.087Z,67.31
2022-10-19T04:26:58.785Z,67.39
2022-10-19T04:29:29.602Z,68.45
2022-10-19T04:31:56.646Z,66.62
2022-10-19T04:34:23.223Z,65.12
2022-10-19T04:36:49.790Z,64.04
2022-10-19T04:39:21.609Z,65.47
2022-10-19T04:41:48.284Z,65.73
2022-10-19T04:44:14.930Z,64.02
2022-10-19T04:46:41.545Z,66.15
2022-10-19T04:49:08.132Z,67.45
2022-10-19T04:51:35.334Z,67.66
2022-10-19T04:54:03.156Z,67.76
2022-10-19T04:56:29.912Z,67.60
2022-10-19T04:58:57.905Z,67.79
2022-10-19T05:01:26.999Z,67.58
2022-10-19T05:03:58.831Z,64.73
2022-10-19T05:06:26.059Z,68.68
2022-10-19T05:08:53.293Z,66.85
2022-10-19T05:11:20.621Z,67.04
2022-10-19T05:13:47.530Z,66.15
2022-10-19T05:16:19.804Z,66.82
2022-10-19T05:18:51.950Z,69.04
2022-10-19T05:21:19.539Z,66.90
2022-10-19T05:23:46.146Z,67.48
2022-10-19T05:26:15.807Z,66.19
2022-10-19T05:28:42.525Z,68.52
2022-10-19T05:31:16.369Z,67.49
2022-10-19T05:33:43.766Z,67.51
2022-10-19T05:36:15.242Z,66.30
2022-10-19T05:38:42.656Z,68.41
2022-10-19T05:41:09.819Z,70.57
2022-10-19T05:43:36.496Z,69.54
2022-10-19T05:46:05.936Z,71.01
2022-10-19T05:48:35.143Z,69.74
2022-10-19T05:51:04.551Z,67.48
2022-10-19T05:53:32.991Z,69.74
2022-10-19T05:55:59.752Z,70.58
2022-10-19T05:58:26.937Z,70.29
2022-10-19T06:00:56.005Z,70.88
2022-10-19T06:03:23.480Z,70.42
2022-10-19T06:05:51.176Z,68.84
2022-10-19T06:08:19.406Z,67.46
2022-10-19T06:10:47.364Z,68.55
2022-10-19T06:13:16.368Z,69.23
2022-10-19T06:15:43.724Z,67.63
2022-10-19T06:18:12.016Z,67.02
2022-10-19T06:20:42.032Z,66.46
2022-10-19T06:23:09.899Z,66.68
2022-10-19T06:25:36.936Z,68.74
2022-10-19T06:28:04.333Z,70.77
2022-10-19T06:30:31.025Z,68.66
2022-10-19T06:32:59.495Z,71.39
2022-10-19T06:35:26.209Z,69.57
2022-10-19T06:37:52.859Z,70.07
2022-10-19T06:40:19.520Z,71.70
2022-10-19T06:42:46.148Z,70.12
2022-10-19T06:45:12.785Z,68.14
2022-10-19T06:47:39.603Z,68.68
2022-10-19T06:50:07.273Z,68.76
2022-10-19T06:52:35.636Z,67.09
2022-10-19T06:55:03.678Z,67.88
2022-10-19T06:57:30.314Z,67.03
2022-10-19T06:59:57.988Z,65.99
2022-10-19T07:02:24.687Z,67.43
2022-10-19T07:04:51.371Z,67.92
2022-10-19T07:07:18.023Z,66.49
2022-10-19T07:09:44.709Z,67.10
2022-10-19T07:12:11.395Z,66.96
2022-10-19T07:14:38.734Z,65.57
2022-10-19T07:17:11.452Z,64.74
2022-10-19T07:19:39.523Z,65.72
2022-10-19T07:22:07.484Z,66.10
2022-10-19T07:24:34.124Z,66.63
2022-10-19T07:27:01.077Z,66.99
2022-10-19T07:29:27.724Z,68.67
2022-10-19T07:31:54.429Z,67.43
2022-10-19T07:34:23.176Z,65.93
2022-10-19T07:36:52.110Z,65.12
2022-10-19T07:39:21.922Z,64.51
2022-10-19T07:41:48.893Z,63.58
2022-10-19T07:44:15.986Z,61.34
2022-10-19T07:46:43.001Z,60.10
2022-10-19T07:49:13.992Z,57.82
2022-10-19T07:51:41.047Z,59.49
2022-10-19T07:54:08.068Z,59.50
2022-10-19T07:56:35.460Z,58.64
2022-10-19T07:59:02.107Z,56.33
2022-10-19T08:01:37.826Z,55.97
2022-10-19T08:06:51.249Z,54.40
2022-10-19T08:09:33.731Z,55.34
2022-10-19T08:12:05.879Z,55.98
2022-10-19T08:14:32.614Z,56.59
2022-10-19T08:16:59.884Z,57.34
2022-10-19T08:19:26.486Z,58.92
2022-10-19T08:21:53.114Z,59.09
2022-10-19T08:24:21.121Z,61.23
2022-10-19T08:26:48.326Z,62.39
2022-10-19T08:29:20.446Z,63.13
2022-10-19T08:31:48.216Z,63.70
2022-10-19T08:34:15.913Z,64.72
2022-10-19T08:36:43.335Z,66.89
2022-10-19T08:39:10.797Z,66.26
2022-10-19T08:41:40.389Z,64.81
2022-10-19T08:44:18.793Z,65.21
2022-10-19T08:47:12.345Z,66.08
2022-10-19T08:49:41.476Z,65.96
2022-10-19T08:52:27.725Z,65.03
2022-10-19T08:55:00.421Z,65.45
2022-10-19T08:57:51.513Z,65.35
2022-10-19T09:00:26.853Z,64.44
2022-10-19T09:02:59.184Z,65.12
2022-10-19T09:05:57.633Z,67.01
2022-10-19T09:08:24.488Z,67.80
2022-10-19T09:10:55.367Z,67.65
2022-10-19T09:13:41.736Z,67.65
2022-10-19T09:16:25.534Z,67.64
2022-10-19T09:21:44.581Z,66.90
2022-10-19T09:24:27.784Z,67.42
2022-10-19T09:26:58.409Z,66.57
2022-10-19T09:29:38.847Z,69.15
2022-10-19T09:32:17.140Z,65.67
2022-10-19T09:34:50.898Z,66.42
2022-10-19T09:37:25.691Z,66.97
2022-10-19T09:39:54.932Z,66.87
2022-10-19T09:42:27.929Z,67.21
2022-10-19T09:44:55.336Z,65.66
2022-10-19T09:47:37.903Z,65.20
2022-10-19T09:50:26.262Z,65.56
2022-10-19T09:53:03.536Z,64.54
2022-10-19T09:55:42.543Z,63.29
2022-10-19T09:58:15.088Z,63.27
2022-10-19T10:00:52.010Z,64.72
2022-10-19T10:03:24.453Z,63.38
2022-10-19T10:05:51.700Z,63.57
2022-10-19T10:08:22.666Z,63.14
2022-10-19T10:11:04.830Z,64.20
2022-10-19T10:13:36.987Z,62.64
2022-10-19T10:16:08.227Z,62.83
2022-10-19T10:18:59.455Z,63.38
2022-10-19T10:21:32.234Z,62.83
2022-10-19T10:24:10.367Z,62.95
2022-10-19T10:26:47.543Z,63.71
2022-10-19T10:29:35.488Z,63.40
2022-10-19T10:32:07.594Z,62.22
2022-10-19T10:34:51.768Z,61.45
2022-10-19T10:37:28.144Z,62.90
2022-10-19T10:40:00.433Z,63.35
2022-10-19T10:42:45.007Z,62.42
2022-10-19T10:45:20.271Z,61.39
2022-10-19T10:47:48.408Z,62.68
2022-10-19T10:50:31.615Z,62.83
2022-10-19T10:53:01.574Z,61.93
2022-10-19T10:55:30.976Z,61.06
2022-10-19T10:58:19.713Z,62.32
2022-10-19T11:00:51.572Z,61.22
2022-10-19T11:03:27.552Z,60.99
2022-10-19T11:05:59.772Z,61.23
2022-10-19T11:08:41.550Z,62.32
2022-10-19T11:11:20.485Z,61.21
2022-10-19T11:14:04.501Z,62.43
2022-10-19T11:16:44.104Z,62.90
2022-10-19T11:19:26.229Z,62.36
2022-10-19T11:22:16.786Z,62.30
2022-10-19T11:24:58.117Z,61.87
2022-10-19T11:27:50.021Z,60.89
2022-10-19T11:30:23.126Z,62.21
2022-10-19T11:32:52.732Z,61.44
2022-10-19T11:35:30.991Z,61.01
2022-10-19T11:38:20.320Z,60.66
2022-10-19T11:41:18.237Z,59.82
2022-10-19T11:43:59.224Z,61.70
2022-10-19T11:46:48.855Z,60.92
2022-10-19T11:49:47.896Z,59.11
2022-10-19T11:52:43.808Z,59.37
2022-10-19T11:55:35.598Z,58.94
2022-10-19T11:58:05.231Z,59.71
2022-10-19T12:00:50.049Z,58.29
2022-10-19T12:03:22.757Z,57.09
2022-10-19T12:06:01.453Z,57.78
2022-10-19T12:08:56.680Z,58.52
2022-10-19T12:11:45.944Z,57.09
2022-10-19T12:14:22.270Z,58.26
2022-10-19T12:16:56.222Z,57.85
2022-10-19T12:19:34.717Z,56.54
2022-10-19T12:22:05.690Z,56.53
2022-10-19T12:24:34.664Z,55.94
2022-10-19T12:27:01.944Z,55.74
2022-10-19T12:29:37.259Z,55.28
2022-10-19T12:32:06.145Z,53.96
2022-10-19T12:34:57.841Z,56.21
2022-10-19T12:37:37.661Z,55.18
2022-10-19T12:40:17.711Z,54.87
2022-10-19T12:42:59.898Z,54.14
2022-10-19T12:45:47.001Z,54.44
2022-10-19T12:48:13.525Z,53.89
2022-10-19T12:50:49.002Z,52.58
2022-10-19T12:53:41.601Z,54.20
2022-10-19T12:56:08.160Z,54.02
2022-10-19T12:58:46.568Z,52.08
2022-10-19T13:01:35.730Z,53.93
2022-10-19T13:04:14.505Z,53.62
2022-10-19T13:06:48.503Z,53.24
2022-10-19T13:09:34.782Z,53.12
2022-10-19T13:12:16.237Z,53.03
2022-10-19T13:14:57.077Z,55.23
2022-10-19T13:17:35.708Z,54.50
2022-10-19T13:20:14.690Z,54.35
2022-10-19T13:23:11.947Z,53.83
2022-10-19T13:25:42.075Z,54.15
2022-10-19T13:28:08.817Z,54.47
2022-10-19T13:30:35.448Z,53.84
2022-10-19T13:33:44.048Z,53.80
2022-10-19T13:36:12.736Z,54.75
2022-10-19T13:38:45.008Z,55.71
2022-10-19T13:41:18.961Z,54.65
2022-10-19T13:44:18.947Z,55.63
2022-10-19T13:46:55.099Z,56.44
2022-10-19T13:49:41.109Z,56.52
2022-10-19T13:52:42.097Z,57.00
2022-10-19T13:55:32.860Z,55.83
2022-10-19T13:58:34.694Z,55.49
2022-10-19T14:01:16.665Z,54.08
2022-10-19T14:04:20.217Z,53.53
2022-10-19T14:07:24.467Z,55.09
2022-10-19T14:10:18.409Z,55.05
2022-10-19T14:12:46.989Z,57.60
2022-10-19T14:15:25.459Z,56.77
2022-10-19T14:17:52.107Z,55.99
2022-10-19T14:20:34.084Z,55.90
2022-10-19T14:23:25.926Z,55.99
2022-10-19T14:25:58.807Z,55.97
2022-10-19T14:28:27.685Z,56.86
2022-10-19T14:30:59.201Z,56.56
2022-10-19T14:33:28.406Z,55.93
2022-10-19T14:35:56.144Z,57.05
2022-10-19T14:38:43.495Z,55.59
2022-10-19T14:41:26.903Z,56.88
2022-10-19T14:43:55.538Z,57.81
2022-10-19T14:46:26.635Z,58.73
2022-10-19T14:49:02.901Z,58.91
2022-10-19T14:51:54.266Z,58.98
2022-10-19T14:54:36.929Z,59.33
2022-10-19T14:57:14.854Z,59.85
2022-10-19T14:59:49.873Z,59.20
2022-10-19T15:02:25.115Z,61.17
2022-10-19T15:04:55.859Z,60.30
2022-10-19T15:07:28.668Z,59.82
2022-10-19T15:09:59.440Z,62.36
2022-10-19T15:12:35.373Z,64.16
2022-10-19T15:15:08.552Z,65.42
2022-10-19T15:17:35.748Z,63.54
2022-10-19T15:20:02.460Z,63.06
2022-10-19T15:22:32.430Z,63.51
2022-10-19T15:25:08.259Z,64.29
2022-10-19T15:27:40.992Z,64.29
2022-10-19T15:30:19.715Z,65.26
2022-10-19T15:32:49.729Z,66.07
2022-10-19T15:35:25.218Z,66.19
2022-10-19T15:38:01.859Z,66.22
2022-10-19T15:40:59.573Z,65.59
2022-10-19T15:43:31.818Z,66.09
2022-10-19T15:46:08.314Z,66.92
2022-10-19T15:48:40.981Z,67.40
2022-10-19T15:51:25.731Z,66.60
2022-10-19T15:54:00.329Z,67.21
2022-10-19T15:56:31.086Z,66.51
2022-10-19T15:59:00.159Z,65.76
2022-10-19T16:01:30.367Z,65.97
2022-10-19T16:03:57.060Z,64.31
2022-10-19T16:06:27.814Z,63.67
2022-10-19T16:08:54.587Z,64.72
2022-10-19T16:11:23.275Z,65.71
2022-10-19T16:13:50.753Z,64.45
2022-10-19T16:16:30.633Z,64.13
2022-10-19T16:18:58.216Z,64.88
2022-10-19T16:21:30.349Z,64.41
2022-10-19T16:23:57.176Z,67.10
2022-10-19T16:26:24.087Z,67.70
2022-10-19T16:28:50.864Z,67.70
2022-10-19T16:31:18.207Z,66.95
2022-10-19T16:33:44.820Z,67.13
2022-10-19T16:36:11.827Z,69.29
2022-10-19T16:38:38.851Z,70.58
2022-10-19T16:41:08.362Z,70.68
2022-10-19T16:43:36.854Z,71.44
2022-10-19T16:46:05.115Z,70.64
2022-10-19T16:48:32.930Z,69.88
2022-10-19T16:51:05.416Z,69.73
2022-10-19T16:53:32.182Z,69.60
2022-10-19T16:56:07.883Z,71.46
2022-10-19T16:58:35.359Z,70.77
2022-10-19T17:01:08.085Z,73.43
2022-10-19T17:03:34.910Z,75.02
2022-10-19T17:06:06.844Z,75.95
2022-10-19T17:08:37.103Z,76.35
2022-10-19T17:11:20.816Z,74.27
2022-10-19T17:13:49.990Z,72.99
2022-10-19T17:16:19.039Z,72.25
2022-10-19T17:18:47.053Z,74.25
2022-10-19T17:21:26.064Z,76.73
2022-10-19T17:23:55.346Z,76.86
2022-10-19T17:26:30.325Z,78.60
2022-10-19T17:28:57.310Z,78.55
2022-10-19T17:31:24.251Z,78.19
2022-10-19T17:33:51.380Z,75.49
2022-10-19T17:36:27.586Z,77.33
2022-10-19T17:38:55.744Z,75.31
2022-10-19T17:41:22.844Z,72.76
2022-10-19T17:43:50.969Z,73.99
2022-10-19T17:46:20.890Z,72.76
2022-10-19T17:48:48.838Z,72.33
2022-10-19T17:51:18.621Z,73.64
2022-10-19T17:53:48.468Z,71.21
2022-10-19T17:56:18.179Z,72.03
2022-10-19T17:58:48.195Z,72.27
2022-10-19T18:01:17.171Z,72.54
2022-10-19T18:03:43.812Z,70.57
2022-10-19T18:06:16.442Z,72.31
2022-10-19T18:08:46.110Z,72.07
2022-10-19T18:11:12.972Z,72.76
2022-10-19T18:13:41.136Z,71.32
2022-10-19T18:16:14.954Z,70.07
2022-10-19T18:18:44.305Z,71.66
2022-10-19T18:21:13.187Z,70.73
2022-10-19T18:23:40.857Z,75.90
2022-10-19T18:26:14.333Z,76.03
2022-10-19T18:28:42.245Z,73.63
2022-10-19T18:31:11.542Z,74.15
2022-10-19T18:33:39.064Z,76.32
2022-10-19T18:36:10.171Z,77.43
2022-10-19T18:38:37.381Z,78.18
2022-10-19T18:41:10.492Z,77.78
2022-10-19T18:43:38.293Z,74.82
2022-10-19T18:46:05.093Z,71.93
2022-10-19T18:48:32.266Z,72.43
2022-10-19T18:51:04.882Z,73.69
2022-10-19T18:53:32.892Z,72.51
2022-10-19T18:56:05.818Z,72.99
2022-10-19T18:58:33.598Z,72.93
2022-10-19T19:01:08.742Z,72.44
2022-10-19T19:03:39.040Z,75.46
2022-10-19T19:06:08.924Z,73.18
2022-10-19T19:08:35.715Z,71.41
2022-10-19T19:11:12.338Z,69.54
2022-10-19T19:13:39.542Z,68.59
2022-10-19T19:16:08.375Z,67.74
2022-10-19T19:18:35.464Z,69.50
2022-10-19T19:21:04.088Z,73.22
2022-10-19T19:23:31.317Z,71.75
2022-10-19T19:25:59.077Z,69.89
2022-10-19T19:28:26.781Z,70.99
2022-10-19T19:30:53.472Z,71.25
2022-10-19T19:33:20.154Z,72.00
2022-10-19T19:35:48.586Z,73.41
2022-10-19T19:38:16.100Z,71.24
2022-10-19T19:40:44.937Z,72.36
2022-10-19T19:43:14.353Z,72.49
2022-10-19T19:45:42.572Z,72.49
2022-10-19T19:48:10.268Z,69.71
2022-10-19T19:50:37.942Z,72.61
2022-10-19T19:53:04.764Z,70.65
2022-10-19T19:55:36.774Z,68.64
2022-10-19T19:58:05.701Z,67.82
2022-10-19T20:00:32.577Z,67.89
2022-10-19T20:02:59.704Z,69.12
2022-10-19T20:05:27.854Z,69.04
2022-10-19T20:07:54.505Z,70.82
2022-10-19T20:10:21.393Z,70.55
2022-10-19T20:12:47.986Z,69.37
2022-10-19T20:15:17.552Z,68.08
2022-10-19T20:17:45.103Z,70.02
2022-10-19T20:20:13.626Z,70.10
2022-10-19T20:22:44.773Z,73.29
2022-10-19T20:25:11.449Z,73.68
2022-10-19T20:27:38.324Z,73.29
2022-10-19T20:30:05.852Z,70.46
2022-10-19T20:32:32.685Z,69.22
2022-10-19T20:34:59.401Z,70.15
2022-10-19T20:37:26.032Z,71.15
2022-10-19T20:39:52.615Z,71.23
2022-10-19T20:42:19.328Z,74.34
2022-10-19T20:44:45.914Z,76.01
2022-10-19T20:47:12.518Z,78.90
2022-10-19T20:49:39.127Z,74.76
2022-10-19T20:52:06.650Z,72.34
2022-10-19T20:54:33.476Z,70.92
2022-10-19T20:57:00.071Z,73.77
2022-10-19T20:59:26.728Z,74.50
2022-10-19T21:01:57.518Z,73.76
2022-10-19T21:04:25.451Z,74.38
2022-10-19T21:06:52.961Z,75.46
2022-10-19T21:09:22.300Z,76.99
2022-10-19T21:11:51.277Z,77.92
2022-10-19T21:14:25.384Z,77.41
2022-10-19T21:16:56.139Z,76.20
2022-10-19T21:19:25.465Z,75.21
2022-10-19T21:21:58.285Z,73.58
2022-10-19T21:24:28.708Z,74.53
2022-10-19T21:26:55.506Z,76.11
2022-10-19T21:29:22.142Z,76.78
2022-10-19T21:31:50.336Z,77.76
2022-10-19T21:34:20.924Z,80.14
2022-10-19T21:36:47.870Z,80.11
2022-10-19T21:39:14.532Z,79.14
2022-10-19T21:41:41.300Z,80.65
2022-10-19T21:44:07.926Z,81.34
2022-10-19T21:46:34.641Z,79.50
2022-10-19T21:49:01.270Z,79.92
2022-10-19T21:51:47.701Z,80.17
2022-10-19T21:54:17.811Z,81.01
2022-10-19T21:56:44.899Z,77.69
2022-10-19T21:59:12.534Z,77.23
2022-10-19T22:01:41.487Z,79.12
2022-10-19T22:04:15.133Z,80.02
2022-10-19T22:06:43.006Z,79.44
2022-10-19T22:09:13.973Z,77.91
2022-10-19T22:11:41.281Z,79.27
2022-10-19T22:14:08.026Z,79.88
2022-10-19T22:16:34.730Z,79.96
2022-10-19T22:19:01.317Z,77.56
2022-10-19T22:21:30.869Z,79.36
2022-10-19T22:24:03.079Z,78.89
2022-10-19T22:26:35.609Z,79.49
2022-10-19T22:29:04.016Z,80.89
2022-10-19T22:31:32.148Z,80.70
2022-10-19T22:34:08.774Z,81.02
2022-10-19T22:36:35.474Z,80.92
2022-10-19T22:39:02.136Z,81.20
2022-10-19T22:41:28.732Z,79.34
2022-10-19T22:43:55.375Z,75.05
2022-10-19T22:46:22.019Z,72.99
2022-10-19T22:48:48.648Z,72.40
2022-10-19T22:51:15.278Z,72.01
2022-10-19T22:53:41.939Z,72.33
2022-10-19T22:56:11.805Z,71.34
2022-10-19T22:58:38.842Z,70.33
2022-10-19T23:01:07.787Z,68.98
2022-10-19T23:03:34.486Z,67.98
2022-10-19T23:06:01.678Z,69.01
2022-10-19T23:08:28.373Z,68.50
2022-10-19T23:10:55.105Z,69.49
2022-10-19T23:13:22.082Z,70.55
2022-10-19T23:15:48.824Z,68.50
2022-10-19T23:18:15.458Z,70.51
2022-10-19T23:20:42.527Z,74.64
2022-10-19T23:23:09.607Z,73.55
2022-10-19T23:25:36.198Z,76.59
2022-10-19T23:28:02.862Z,76.02
2022-10-19T23:30:29.436Z,74.12
2022-10-19T23:32:59.108Z,78.40
2022-10-19T23:35:25.724Z,77.27
2022-10-19T23:37:52.475Z,75.34
2022-10-19T23:40:19.152Z,75.23
2022-10-19T23:42:45.756Z,76.15
2022-10-19T23:45:12.434Z,74.96
2022-10-19T23:47:39.153Z,72.41
2022-10-19T23:50:06.306Z,71.50
2022-10-19T23:52:32.950Z,71.81
2022-10-19T23:54:59.571Z,72.41
2022-10-19T23:57:26.201Z,75.19
2022-10-19T23:59:52.776Z,74.73
